Moundou Airport Moundou TD
ICAO: FTTD
IATA: MQQ
Category: Medium
Scheduled Services: Yes

Elevation: 1407 ft
TransAlt. 3900 ft.

Airport Communications:
TWR:118.6

FTTD Zoom In..

Runways:

(A) RW 04 length 9843 ft width 148 ft
---- / hdg 35

(B) RW 22 length 9843 ft width 148 ft
---- / hdg 215

Location; FTTD
Day. 27 / Time. 15.00 Zulu
* QNH: 1008
* Temperature: 32° c. 89.6°f.
* Wind from: 000° Speed 00 kn.
Dewpoint: 25° c.
Visibility: 10 km or more.
Clouds: Scattered 4000 ft.
Clouds: Few 5000 ft.

FTTD 271500Z 00000KT 9999 SCT040 FEW050CB 32/25 Q1008

Going to: --> -->


Wind - Calm.

 
 
jpsmedia worldairports.se 2020   terms of use